createdAt,value
2019-03-13T00:00:15.939Z,10.02
2019-03-13T00:02:45.632Z,10.09
2019-03-13T00:05:15.175Z,10.07
2019-03-13T00:07:44.853Z,9.99
2019-03-13T00:10:14.394Z,10.15
2019-03-13T00:12:44.074Z,10.05
2019-03-13T00:15:13.810Z,9.67
2019-03-13T00:17:43.412Z,9.76
2019-03-13T00:20:13.086Z,9.69
2019-03-13T00:22:42.621Z,9.50
2019-03-13T00:25:12.421Z,9.41
2019-03-13T00:27:42.152Z,9.61
2019-03-13T00:30:11.901Z,9.79
2019-03-13T00:32:41.496Z,9.89
2019-03-13T00:35:11.359Z,10.01
2019-03-13T00:37:41.095Z,10.06
2019-03-13T00:40:10.875Z,10.17
2019-03-13T00:42:40.453Z,9.69
2019-03-13T00:45:10.093Z,9.51
2019-03-13T00:47:39.810Z,9.62
2019-03-13T00:50:09.524Z,9.71
2019-03-13T00:52:39.136Z,9.79
2019-03-13T00:55:08.930Z,9.82
2019-03-13T00:57:38.582Z,9.41
2019-03-13T01:00:08.433Z,9.31
2019-03-13T01:02:40.553Z,9.27
2019-03-13T01:05:23.472Z,9.21
2019-03-13T01:07:53.103Z,9.23
2019-03-13T01:10:22.735Z,9.35
2019-03-13T01:12:52.321Z,9.35
2019-03-13T01:15:22.063Z,9.40
2019-03-13T01:17:51.617Z,9.27
2019-03-13T01:20:21.195Z,9.51
2019-03-13T01:22:50.861Z,9.62
2019-03-13T01:25:20.501Z,9.73
2019-03-13T01:27:50.149Z,9.52
2019-03-13T01:30:19.801Z,9.68
2019-03-13T01:32:54.693Z,9.38
2019-03-13T01:35:30.847Z,9.47
2019-03-13T01:38:00.599Z,9.57
2019-03-13T01:40:30.291Z,9.58
2019-03-13T01:42:59.910Z,9.69
2019-03-13T01:45:29.588Z,9.84
2019-03-13T01:47:59.294Z,9.74
2019-03-13T01:50:29.053Z,9.33
2019-03-13T01:52:58.970Z,9.54
2019-03-13T01:55:28.770Z,9.54
2019-03-13T01:57:59.287Z,9.67
2019-03-13T02:00:29.601Z,9.54
2019-03-13T02:02:59.607Z,9.53
2019-03-13T02:05:29.730Z,9.58
2019-03-13T02:07:59.384Z,9.74
2019-03-13T02:10:29.045Z,9.88
2019-03-13T02:12:58.868Z,9.92
2019-03-13T02:15:28.881Z,9.97
2019-03-13T02:17:59.099Z,10.05
2019-03-13T02:20:29.224Z,10.03
2019-03-13T02:22:59.103Z,10.05
2019-03-13T02:25:28.945Z,9.94
2019-03-13T02:27:59.067Z,9.91
2019-03-13T02:30:30.822Z,9.94
2019-03-13T02:33:00.848Z,10.05
2019-03-13T02:35:30.887Z,9.92
2019-03-13T02:38:00.566Z,9.60
2019-03-13T02:40:30.817Z,9.36
2019-03-13T02:43:00.570Z,9.40
2019-03-13T02:45:30.725Z,9.07
2019-03-13T02:48:01.055Z,9.20
2019-03-13T02:50:31.066Z,8.88
2019-03-13T02:53:01.193Z,8.78
2019-03-13T02:55:31.103Z,8.44
2019-03-13T02:58:00.915Z,8.40
2019-03-13T03:00:42.501Z,8.34
2019-03-13T03:03:22.764Z,8.40
2019-03-13T03:05:52.684Z,8.47
2019-03-13T03:08:23.002Z,8.34
2019-03-13T03:10:52.920Z,8.18
2019-03-13T03:13:23.442Z,8.09
2019-03-13T03:15:53.562Z,8.10
2019-03-13T03:18:23.381Z,7.98
2019-03-13T03:20:53.084Z,7.94
2019-03-13T03:23:23.818Z,7.82
2019-03-13T03:25:53.856Z,7.94
2019-03-13T03:28:24.059Z,7.89
2019-03-13T03:30:54.082Z,7.84
2019-03-13T03:33:24.213Z,7.86
2019-03-13T03:35:54.034Z,7.90
2019-03-13T03:38:23.683Z,8.00
2019-03-13T03:40:53.842Z,8.06
2019-03-13T03:43:39.293Z,7.93
2019-03-13T03:45:55.721Z,7.91
2019-03-13T03:48:26.064Z,7.89
2019-03-13T03:50:55.754Z,7.93
2019-03-13T03:53:25.878Z,7.78
2019-03-13T03:55:55.803Z,7.52
2019-03-13T03:58:29.351Z,7.55
2019-03-13T04:00:57.973Z,7.53
2019-03-13T04:03:28.228Z,7.53
2019-03-13T04:05:58.212Z,7.54
2019-03-13T04:08:28.639Z,7.44
2019-03-13T04:10:58.774Z,7.37
2019-03-13T04:13:28.261Z,7.39
2019-03-13T04:15:57.922Z,7.46
2019-03-13T04:18:27.479Z,7.45
2019-03-13T04:20:57.162Z,7.52
2019-03-13T04:23:26.812Z,7.56
2019-03-13T04:25:56.483Z,7.79
2019-03-13T04:28:26.046Z,7.83
2019-03-13T04:30:55.692Z,8.15
2019-03-13T04:33:28.060Z,8.26
2019-03-13T04:35:56.762Z,8.54
2019-03-13T04:38:26.522Z,8.66
2019-03-13T04:40:56.197Z,8.57
2019-03-13T04:43:25.732Z,8.59
2019-03-13T04:45:55.402Z,8.46
2019-03-13T04:48:25.074Z,8.47
2019-03-13T04:50:54.721Z,8.10
2019-03-13T04:53:24.354Z,8.08
2019-03-13T04:55:54.021Z,8.06
2019-03-13T04:58:23.693Z,8.13
2019-03-13T05:00:53.343Z,8.03
2019-03-13T05:03:23.038Z,8.14
2019-03-13T05:06:15.686Z,8.41
2019-03-13T05:09:15.034Z,8.50
2019-03-13T05:11:44.717Z,8.63
2019-03-13T05:14:14.371Z,8.72
2019-03-13T05:16:44.043Z,8.45
2019-03-13T05:19:13.716Z,8.51
2019-03-13T05:21:43.324Z,8.49
2019-03-13T05:24:12.932Z,8.65
2019-03-13T05:26:42.655Z,8.60
2019-03-13T05:29:12.239Z,8.82
2019-03-13T05:31:41.885Z,8.50
2019-03-13T05:34:11.355Z,8.40
2019-03-13T05:36:41.005Z,8.43
2019-03-13T05:39:10.672Z,8.54
2019-03-13T05:41:40.302Z,8.49
2019-03-13T05:44:09.952Z,8.27
2019-03-13T05:46:39.660Z,8.13
2019-03-13T05:49:09.294Z,8.18
2019-03-13T05:51:39.022Z,8.38
2019-03-13T05:54:08.614Z,8.54
2019-03-13T05:56:40.714Z,8.73
2019-03-13T05:59:09.571Z,8.67
2019-03-13T06:01:39.265Z,8.54
2019-03-13T06:04:08.781Z,8.81
2019-03-13T06:06:38.366Z,8.98
2019-03-13T06:09:08.833Z,9.10
2019-03-13T06:11:38.496Z,9.31
2019-03-13T06:14:08.145Z,9.36
2019-03-13T06:16:37.761Z,9.27
2019-03-13T06:19:07.529Z,9.23
2019-03-13T06:21:37.176Z,9.15
2019-03-13T06:24:06.954Z,9.45
2019-03-13T06:26:36.665Z,9.31
2019-03-13T06:29:06.435Z,9.33
2019-03-13T06:31:36.015Z,9.29
2019-03-13T06:34:05.694Z,9.24
2019-03-13T06:36:35.405Z,9.01
2019-03-13T06:39:06.118Z,8.93
2019-03-13T06:41:35.798Z,8.52
2019-03-13T06:44:05.426Z,8.41
2019-03-13T06:46:35.084Z,8.24
2019-03-13T06:49:04.756Z,8.22
2019-03-13T06:51:34.409Z,8.52
2019-03-13T06:54:04.067Z,8.78
2019-03-13T06:56:33.975Z,9.07
2019-03-13T06:59:13.440Z,9.34
2019-03-13T07:01:58.928Z,9.63
2019-03-13T07:04:56.698Z,10.11
2019-03-13T07:07:36.849Z,11.16
2019-03-13T07:10:19.871Z,11.31
2019-03-13T07:12:54.706Z,10.08
2019-03-13T07:15:46.332Z,10.03
2019-03-13T07:18:43.791Z,10.14
2019-03-13T07:21:28.754Z,10.26
2019-03-13T07:24:16.896Z,10.37
2019-03-13T07:26:56.542Z,9.69
2019-03-13T07:29:57.589Z,9.83
2019-03-13T07:32:46.237Z,9.82
2019-03-13T07:35:34.892Z,10.69
2019-03-13T07:38:18.227Z,11.09
2019-03-13T07:41:12.613Z,11.31
2019-03-13T07:44:13.465Z,11.43
2019-03-13T07:47:02.007Z,12.94
2019-03-13T07:49:56.609Z,13.09
2019-03-13T07:52:49.960Z,14.04
2019-03-13T07:55:26.841Z,12.63
2019-03-13T07:58:24.506Z,11.74
2019-03-13T08:01:11.630Z,11.13
2019-03-13T08:03:47.169Z,10.98
2019-03-13T08:06:29.015Z,10.74
2019-03-13T08:09:08.754Z,11.06
2019-03-13T08:11:56.753Z,11.73
2019-03-13T08:14:43.969Z,11.86
2019-03-13T08:17:20.318Z,12.72
2019-03-13T08:20:07.575Z,12.74
2019-03-13T08:22:54.887Z,11.68
2019-03-13T08:25:52.549Z,11.31
2019-03-13T08:28:50.214Z,11.01
2019-03-13T08:31:33.897Z,10.98
2019-03-13T08:34:22.399Z,10.75
2019-03-13T08:37:09.926Z,10.05
2019-03-13T08:39:48.751Z,10.22
2019-03-13T08:42:35.471Z,9.92
2019-03-13T08:45:24.445Z,9.78
2019-03-13T08:48:13.077Z,9.87
2019-03-13T08:51:10.425Z,9.83
2019-03-13T08:54:16.583Z,9.76
2019-03-13T08:56:58.189Z,9.67
2019-03-13T09:00:05.068Z,9.64
2019-03-13T09:02:49.226Z,9.52
2019-03-13T09:05:29.066Z,9.62
2019-03-13T09:08:16.450Z,9.63
2019-03-13T09:11:05.053Z,9.80
2019-03-13T09:14:00.970Z,9.98
2019-03-13T09:16:38.159Z,10.22
2019-03-13T09:19:38.586Z,9.95
2019-03-13T09:22:19.765Z,9.93
2019-03-13T09:25:16.507Z,9.77
2019-03-13T09:27:59.837Z,9.79
2019-03-13T09:31:00.411Z,9.91
2019-03-13T09:33:54.861Z,9.67
2019-03-13T09:36:46.383Z,9.72
2019-03-13T09:39:25.639Z,9.89
2019-03-13T09:42:13.045Z,9.80
2019-03-13T09:45:04.465Z,9.83
2019-03-13T09:47:42.568Z,10.03
2019-03-13T09:50:18.325Z,10.03
2019-03-13T09:53:15.491Z,10.03
2019-03-13T09:56:09.963Z,9.71
2019-03-13T09:58:44.267Z,9.80
2019-03-13T10:01:35.804Z,10.09
2019-03-13T10:04:42.587Z,10.33
2019-03-13T10:07:40.455Z,10.10
2019-03-13T10:10:27.581Z,10.20
2019-03-13T10:13:04.404Z,10.33
2019-03-13T10:15:51.882Z,10.75
2019-03-13T10:18:34.800Z,11.77
2019-03-13T10:21:22.437Z,12.85
2019-03-13T10:24:07.612Z,12.92
2019-03-13T10:26:43.977Z,13.76
2019-03-13T10:29:31.087Z,13.69
2019-03-13T10:32:31.834Z,13.85
2019-03-13T10:35:23.257Z,14.52
2019-03-13T10:38:13.168Z,12.73
2019-03-13T10:40:53.195Z,12.14
2019-03-13T10:43:40.612Z,11.69
2019-03-13T10:46:31.925Z,11.94
2019-03-13T10:49:22.842Z,12.16
2019-03-13T10:52:19.887Z,11.71
2019-03-13T10:55:07.204Z,11.74
2019-03-13T10:58:01.809Z,12.03
2019-03-13T11:00:59.494Z,12.33
2019-03-13T11:03:45.763Z,12.94
2019-03-13T11:06:33.195Z,12.93
2019-03-13T11:09:20.101Z,13.26
2019-03-13T11:12:20.943Z,14.58
2019-03-13T11:15:18.609Z,15.20
2019-03-13T11:17:56.624Z,14.72
2019-03-13T11:20:44.047Z,13.82
2019-03-13T11:23:47.646Z,13.49
2019-03-13T11:26:26.977Z,13.78
2019-03-13T11:29:14.515Z,13.97
2019-03-13T11:32:03.164Z,13.72
2019-03-13T11:34:44.495Z,13.36
2019-03-13T11:37:41.601Z,13.07
2019-03-13T11:40:41.620Z,12.60
2019-03-13T11:43:30.066Z,12.50
2019-03-13T11:46:21.602Z,12.19
2019-03-13T11:49:09.222Z,12.18
2019-03-13T11:52:08.113Z,11.82
2019-03-13T11:54:56.568Z,11.79
2019-03-13T11:57:36.923Z,11.57
2019-03-13T12:00:15.554Z,11.72
2019-03-13T12:03:00.510Z,12.02
2019-03-13T12:05:51.724Z,11.87
2019-03-13T12:08:41.107Z,12.27
2019-03-13T12:11:28.327Z,13.44
2019-03-13T12:14:17.176Z,14.00
2019-03-13T12:17:09.003Z,13.40
2019-03-13T12:19:59.504Z,12.68
2019-03-13T12:23:03.527Z,12.63
2019-03-13T12:25:42.243Z,12.38
2019-03-13T12:28:43.193Z,12.47
2019-03-13T12:31:30.537Z,12.09
2019-03-13T12:34:22.534Z,11.83
2019-03-13T12:37:12.115Z,12.16
2019-03-13T12:39:59.538Z,12.26
2019-03-13T12:42:46.702Z,12.05
2019-03-13T12:45:41.256Z,11.76
2019-03-13T12:48:28.374Z,11.57
2019-03-13T12:51:29.221Z,11.77
2019-03-13T12:54:23.801Z,11.84
2019-03-13T12:57:18.194Z,12.12
2019-03-13T13:00:16.173Z,11.85
2019-03-13T13:02:55.128Z,11.70
2019-03-13T13:05:46.815Z,11.65
2019-03-13T13:08:25.240Z,11.37
2019-03-13T13:11:28.945Z,11.17
2019-03-13T13:14:17.904Z,11.39
2019-03-13T13:17:18.539Z,11.78
2019-03-13T13:19:48.327Z,11.96
2019-03-13T13:22:17.967Z,12.21
2019-03-13T13:24:47.637Z,12.43
2019-03-13T13:27:17.306Z,11.93
2019-03-13T13:29:46.932Z,11.75
2019-03-13T13:32:16.626Z,11.59
2019-03-13T13:34:46.293Z,11.51
2019-03-13T13:37:15.954Z,11.72
2019-03-13T13:39:45.553Z,11.75
2019-03-13T13:42:15.165Z,11.77
2019-03-13T13:44:44.766Z,11.97
2019-03-13T13:47:14.423Z,12.03
2019-03-13T13:49:44.183Z,12.40
2019-03-13T13:52:13.846Z,12.25
2019-03-13T13:54:43.495Z,12.35
2019-03-13T13:57:13.185Z,12.24
2019-03-13T13:59:43.096Z,12.12
2019-03-13T14:02:12.797Z,11.66
2019-03-13T14:04:42.763Z,11.66
2019-03-13T14:07:12.512Z,11.62
2019-03-13T14:09:42.297Z,11.72
2019-03-13T14:12:11.954Z,11.43
2019-03-13T14:14:41.592Z,11.09
2019-03-13T14:17:11.235Z,11.25
2019-03-13T14:19:41.005Z,10.82
2019-03-13T14:22:10.673Z,10.76
2019-03-13T14:24:40.327Z,10.74
2019-03-13T14:27:14.792Z,10.83
2019-03-13T14:29:41.287Z,11.02
2019-03-13T14:32:10.938Z,11.10
2019-03-13T14:34:40.607Z,10.94
2019-03-13T14:37:10.281Z,10.98
2019-03-13T14:39:39.924Z,11.17
2019-03-13T14:42:09.892Z,11.10
2019-03-13T14:44:39.526Z,10.88
2019-03-13T14:47:09.678Z,10.60
2019-03-13T14:49:39.289Z,10.48
2019-03-13T14:52:09.043Z,10.42
2019-03-13T14:54:38.686Z,10.65
2019-03-13T14:57:08.362Z,10.60
2019-03-13T14:59:38.012Z,10.69
2019-03-13T15:02:07.663Z,10.66
2019-03-13T15:04:37.339Z,10.63
2019-03-13T15:07:07.013Z,10.70
2019-03-13T15:09:39.181Z,10.77
2019-03-13T15:12:08.049Z,10.52
2019-03-13T15:14:37.712Z,10.59
2019-03-13T15:17:07.430Z,10.91
2019-03-13T15:19:37.039Z,10.98
2019-03-13T15:22:06.641Z,10.96
2019-03-13T15:24:36.275Z,11.10
2019-03-13T15:27:06.043Z,10.89
2019-03-13T15:29:35.888Z,10.91
2019-03-13T15:32:05.672Z,11.03
2019-03-13T15:34:35.309Z,11.18
2019-03-13T15:37:04.894Z,10.79
2019-03-13T15:39:34.547Z,10.38
2019-03-13T15:42:04.224Z,10.31
2019-03-13T15:44:33.847Z,10.38
2019-03-13T15:47:03.531Z,10.41
2019-03-13T15:49:33.304Z,10.52
2019-03-13T15:52:03.063Z,10.28
2019-03-13T15:54:32.717Z,10.09
2019-03-13T15:57:02.574Z,9.93
2019-03-13T15:59:32.224Z,9.91
2019-03-13T16:02:01.896Z,10.04
2019-03-13T16:04:31.523Z,10.35
2019-03-13T16:07:01.106Z,10.64
2019-03-13T16:09:30.762Z,10.94
2019-03-13T16:12:00.327Z,11.02
2019-03-13T16:14:29.975Z,10.71
2019-03-13T16:16:59.557Z,10.76
2019-03-13T16:19:29.213Z,10.80
2019-03-13T16:21:58.866Z,10.81
2019-03-13T16:24:28.534Z,10.98
2019-03-13T16:26:58.534Z,11.02
2019-03-13T16:29:30.793Z,11.00
2019-03-13T16:31:59.717Z,11.21
2019-03-13T16:34:29.472Z,11.30
2019-03-13T16:36:59.139Z,11.05
2019-03-13T16:39:28.771Z,11.03
2019-03-13T16:41:58.398Z,10.92
2019-03-13T16:44:28.003Z,11.07
2019-03-13T16:46:57.646Z,11.13
2019-03-13T16:49:27.201Z,11.23
2019-03-13T16:51:56.655Z,11.26
2019-03-13T16:54:26.322Z,11.12
2019-03-13T16:56:56.067Z,10.94
2019-03-13T16:59:25.754Z,11.07
2019-03-13T17:01:55.388Z,11.22
2019-03-13T17:04:24.972Z,11.23
2019-03-13T17:06:54.601Z,11.20
2019-03-13T17:09:24.257Z,10.83
2019-03-13T17:11:54.029Z,10.88
2019-03-13T17:14:23.675Z,10.78
2019-03-13T17:16:53.313Z,10.52
2019-03-13T17:19:22.836Z,10.25
2019-03-13T17:21:52.559Z,10.33
2019-03-13T17:24:22.230Z,10.29
2019-03-13T17:26:51.867Z,10.11
2019-03-13T17:29:21.748Z,10.18
2019-03-13T17:31:51.343Z,10.11
2019-03-13T17:34:21.133Z,10.01
2019-03-13T17:36:50.804Z,9.81
2019-03-13T17:39:20.441Z,9.81
2019-03-13T17:41:50.086Z,9.92
2019-03-13T17:44:19.897Z,9.91
2019-03-13T17:46:49.517Z,9.97
2019-03-13T17:49:19.306Z,10.02
2019-03-13T17:51:48.905Z,9.88
2019-03-13T17:54:18.582Z,9.96
2019-03-13T17:56:48.134Z,10.03
2019-03-13T17:59:17.696Z,9.95
2019-03-13T18:01:47.366Z,9.76
2019-03-13T18:04:17.635Z,9.57
2019-03-13T18:06:47.105Z,8.96
2019-03-13T18:09:16.874Z,8.77
2019-03-13T18:11:46.523Z,8.76
2019-03-13T18:14:16.159Z,8.82
2019-03-13T18:16:45.714Z,8.64
2019-03-13T18:19:15.386Z,8.70
2019-03-13T18:21:44.820Z,8.55
2019-03-13T18:24:14.653Z,8.60
2019-03-13T18:26:44.383Z,8.63
2019-03-13T18:29:14.007Z,8.74
2019-03-13T18:31:43.572Z,8.80
2019-03-13T18:34:13.218Z,9.08
2019-03-13T18:36:51.689Z,8.87
2019-03-13T18:39:21.374Z,8.78
2019-03-13T18:41:51.025Z,8.92
2019-03-13T18:44:20.709Z,8.77
2019-03-13T18:46:50.328Z,8.73
2019-03-13T18:49:19.995Z,8.68
2019-03-13T18:51:49.565Z,8.86
2019-03-13T18:54:19.195Z,8.98
2019-03-13T18:56:48.776Z,9.17
2019-03-13T18:59:18.442Z,9.43
2019-03-13T19:01:48.302Z,9.54
2019-03-13T19:04:17.964Z,9.60
2019-03-13T19:06:47.805Z,9.76
2019-03-13T19:09:17.722Z,9.70
2019-03-13T19:11:47.627Z,9.50
2019-03-13T19:14:17.340Z,9.24
2019-03-13T19:16:47.064Z,9.10
2019-03-13T19:19:16.966Z,8.98
2019-03-13T19:21:46.673Z,8.82
2019-03-13T19:24:16.702Z,8.77
2019-03-13T19:26:46.504Z,8.39
2019-03-13T19:29:16.524Z,8.18
2019-03-13T19:31:46.544Z,8.04
2019-03-13T19:34:16.859Z,7.91
2019-03-13T19:36:46.884Z,7.98
2019-03-13T19:39:16.902Z,8.04
2019-03-13T19:41:48.632Z,7.95
2019-03-13T19:44:18.477Z,7.97
2019-03-13T19:46:48.288Z,7.71
2019-03-13T19:49:18.088Z,7.74
2019-03-13T19:51:48.625Z,7.64
2019-03-13T19:54:18.378Z,7.78
2019-03-13T19:56:50.933Z,7.75
2019-03-13T19:59:22.277Z,7.81
2019-03-13T20:01:51.976Z,7.86
2019-03-13T20:04:22.825Z,7.95
2019-03-13T20:06:52.724Z,7.83
2019-03-13T20:09:22.528Z,7.96
2019-03-13T20:11:52.749Z,8.03
2019-03-13T20:14:22.475Z,8.17
2019-03-13T20:16:52.282Z,8.47
2019-03-13T20:19:22.502Z,8.63
2019-03-13T20:21:52.626Z,8.62
2019-03-13T20:24:24.270Z,8.75
2019-03-13T20:26:54.295Z,8.57
2019-03-13T20:29:24.447Z,8.72
2019-03-13T20:31:54.442Z,8.67
2019-03-13T20:34:24.554Z,8.56
2019-03-13T20:36:54.472Z,8.79
2019-03-13T20:39:24.600Z,8.87
2019-03-13T20:41:54.760Z,8.81
2019-03-13T20:44:24.928Z,8.82
2019-03-13T20:46:55.561Z,9.05
2019-03-13T20:49:26.914Z,9.31
2019-03-13T20:51:56.759Z,8.94
2019-03-13T20:54:26.630Z,8.63
2019-03-13T20:56:56.775Z,8.63
2019-03-13T20:59:27.795Z,8.65
2019-03-13T21:02:00.237Z,8.34
2019-03-13T21:04:29.568Z,8.40
2019-03-13T21:06:59.508Z,8.44
2019-03-13T21:09:29.718Z,8.56
2019-03-13T21:12:00.451Z,8.46
2019-03-13T21:14:30.193Z,8.05
2019-03-13T21:16:59.859Z,8.17
2019-03-13T21:19:29.702Z,8.39
2019-03-13T21:22:00.701Z,8.22
2019-03-13T21:24:30.941Z,8.08
2019-03-13T21:27:00.818Z,8.08
2019-03-13T21:29:30.755Z,8.04
2019-03-13T21:32:00.696Z,8.31
2019-03-13T21:34:31.561Z,8.62
2019-03-13T21:37:01.414Z,8.81
2019-03-13T21:39:31.285Z,8.76
2019-03-13T21:42:00.962Z,8.77
2019-03-13T21:44:31.651Z,8.73
2019-03-13T21:47:01.297Z,8.35
2019-03-13T21:49:31.182Z,8.45
2019-03-13T21:52:00.821Z,8.33
2019-03-13T21:54:30.622Z,8.28
2019-03-13T21:57:00.167Z,8.33
2019-03-13T21:59:29.931Z,8.30
2019-03-13T22:01:59.494Z,8.19
2019-03-13T22:04:29.104Z,8.00
2019-03-13T22:06:58.830Z,7.80
2019-03-13T22:09:28.455Z,7.77
2019-03-13T22:11:58.023Z,7.65
2019-03-13T22:14:27.706Z,7.83
2019-03-13T22:16:57.367Z,8.09
2019-03-13T22:19:27.021Z,8.13
2019-03-13T22:21:56.563Z,8.36
2019-03-13T22:24:26.347Z,8.46
2019-03-13T22:26:55.949Z,8.64
2019-03-13T22:29:25.427Z,8.84
2019-03-13T22:31:55.081Z,8.93
2019-03-13T22:34:24.734Z,8.87
2019-03-13T22:36:54.303Z,8.75
2019-03-13T22:39:23.955Z,8.75
2019-03-13T22:41:53.621Z,8.83
2019-03-13T22:44:23.375Z,8.76
2019-03-13T22:46:53.151Z,8.67
2019-03-13T22:49:23.643Z,8.55
2019-03-13T22:51:53.461Z,8.69
2019-03-13T22:54:24.292Z,8.74
2019-03-13T22:56:54.417Z,8.51
2019-03-13T22:59:24.844Z,8.33
2019-03-13T23:01:55.164Z,8.42
2019-03-13T23:04:25.880Z,8.35
2019-03-13T23:06:56.027Z,8.45
2019-03-13T23:09:26.352Z,8.59
2019-03-13T23:11:56.463Z,8.62
2019-03-13T23:14:26.587Z,7.89
2019-03-13T23:16:56.906Z,7.74
2019-03-13T23:19:26.929Z,7.84
2019-03-13T23:21:57.051Z,7.82
2019-03-13T23:24:26.857Z,8.01
2019-03-13T23:26:56.877Z,7.97
2019-03-13T23:29:26.813Z,7.96
2019-03-13T23:31:56.602Z,7.91
2019-03-13T23:34:26.225Z,7.95
2019-03-13T23:36:55.922Z,7.65
2019-03-13T23:39:25.480Z,7.73
2019-03-13T23:41:55.117Z,7.74
2019-03-13T23:44:24.762Z,7.88
2019-03-13T23:46:54.432Z,8.11
2019-03-13T23:49:24.175Z,8.12
2019-03-13T23:51:53.844Z,8.21
2019-03-13T23:54:23.506Z,8.32
2019-03-13T23:56:53.192Z,8.44
2019-03-13T23:59:22.835Z,8.44
